createdAt,value
2018-08-24T00:02:04.591Z,23.30
2018-08-24T00:04:32.149Z,23.20
2018-08-24T00:06:59.683Z,23.20
2018-08-24T00:09:27.182Z,23.20
2018-08-24T00:11:54.623Z,23.20
2018-08-24T00:14:22.061Z,23.20
2018-08-24T00:16:49.540Z,23.30
2018-08-24T00:19:17.635Z,23.30
2018-08-24T00:21:46.015Z,23.30
2018-08-24T00:24:14.087Z,23.20
2018-08-24T00:26:41.587Z,23.20
2018-08-24T00:29:09.584Z,23.20
2018-08-24T00:31:37.773Z,23.20
2018-08-24T00:34:05.251Z,23.20
2018-08-24T00:36:32.765Z,23.10
2018-08-24T00:39:00.229Z,23.10
2018-08-24T00:41:27.789Z,23.10
2018-08-24T00:43:55.287Z,23.20
2018-08-24T00:46:23.402Z,23.20
2018-08-24T00:48:50.827Z,23.10
2018-08-24T00:51:18.308Z,23.00
2018-08-24T00:53:45.773Z,22.90
2018-08-24T00:56:13.445Z,22.80
2018-08-24T00:58:40.927Z,22.80
2018-08-24T01:01:08.983Z,22.70
2018-08-24T01:03:36.671Z,22.70
2018-08-24T01:06:04.523Z,22.60
2018-08-24T01:08:32.021Z,22.60
2018-08-24T01:10:59.539Z,22.60
2018-08-24T01:13:26.998Z,22.60
2018-08-24T01:15:55.730Z,22.50
2018-08-24T01:18:28.891Z,22.40
2018-08-24T01:20:56.512Z,22.50
2018-08-24T01:23:25.259Z,22.60
2018-08-24T01:25:52.714Z,22.60
2018-08-24T01:28:20.519Z,22.50
2018-08-24T01:30:48.314Z,22.60
2018-08-24T01:33:16.392Z,22.50
2018-08-24T01:35:44.158Z,22.40
2018-08-24T01:38:11.623Z,22.40
2018-08-24T01:40:39.146Z,22.40
2018-08-24T01:43:07.239Z,22.40
2018-08-24T01:45:34.699Z,22.30
2018-08-24T01:48:02.107Z,22.30
2018-08-24T01:50:29.668Z,22.30
2018-08-24T01:52:57.099Z,22.30
2018-08-24T01:55:24.563Z,22.30
2018-08-24T01:57:51.998Z,22.40
2018-08-24T02:00:19.649Z,22.30
2018-08-24T02:02:47.118Z,22.40
2018-08-24T02:05:14.651Z,22.30
2018-08-24T02:07:42.084Z,22.30
2018-08-24T02:10:15.315Z,22.30
2018-08-24T02:12:48.378Z,22.20
2018-08-24T02:15:15.835Z,22.40
2018-08-24T02:17:48.975Z,22.30
2018-08-24T02:20:22.158Z,22.30
2018-08-24T02:22:54.471Z,22.20
2018-08-24T02:25:22.835Z,22.10
2018-08-24T02:27:50.327Z,22.00
2018-08-24T02:30:17.761Z,22.00
2018-08-24T02:32:45.232Z,21.90
2018-08-24T02:35:17.240Z,21.80
2018-08-24T02:37:44.740Z,21.90
2018-08-24T02:40:12.174Z,21.80
2018-08-24T02:42:39.641Z,21.80
2018-08-24T02:45:07.176Z,21.90
2018-08-24T02:47:34.745Z,21.80
2018-08-24T02:50:02.173Z,21.80
2018-08-24T02:52:29.625Z,21.90
2018-08-24T02:54:57.044Z,21.90
2018-08-24T02:57:24.467Z,22.00
2018-08-24T02:59:51.920Z,21.90
2018-08-24T03:02:19.433Z,21.90
2018-08-24T03:04:46.870Z,21.90
2018-08-24T03:07:14.351Z,21.90
2018-08-24T03:09:41.762Z,21.90
2018-08-24T03:12:09.322Z,21.90
2018-08-24T03:14:36.703Z,21.80
2018-08-24T03:17:09.815Z,21.80
2018-08-24T03:19:37.405Z,21.80
2018-08-24T03:22:04.886Z,21.80
2018-08-24T03:24:32.463Z,21.70
2018-08-24T03:26:59.906Z,21.80
2018-08-24T03:29:27.418Z,21.70
2018-08-24T03:31:54.896Z,21.60
2018-08-24T03:34:22.330Z,21.60
2018-08-24T03:36:49.752Z,21.60
2018-08-24T03:39:17.266Z,21.60
2018-08-24T03:41:44.711Z,21.60
2018-08-24T03:44:12.128Z,21.60
2018-08-24T03:46:39.658Z,21.60
2018-08-24T03:49:07.196Z,21.60
2018-08-24T03:51:34.746Z,21.60
2018-08-24T03:54:06.780Z,21.50
2018-08-24T03:56:34.195Z,21.30
2018-08-24T03:59:01.775Z,21.30
2018-08-24T04:01:29.369Z,21.30
2018-08-24T04:03:56.895Z,21.30
2018-08-24T04:06:24.390Z,21.20
2018-08-24T04:08:51.872Z,21.20
2018-08-24T04:11:19.439Z,21.20
2018-08-24T04:13:47.195Z,21.20
2018-08-24T04:16:14.844Z,21.10
2018-08-24T04:18:42.310Z,21.20
2018-08-24T04:21:09.847Z,21.20
2018-08-24T04:23:37.339Z,21.20
2018-08-24T04:26:04.935Z,21.00
2018-08-24T04:28:32.460Z,21.00
2018-08-24T04:30:59.927Z,20.90
2018-08-24T04:33:27.454Z,21.00
2018-08-24T04:35:54.928Z,21.00
2018-08-24T04:38:22.482Z,21.00
2018-08-24T04:40:50.102Z,21.00
2018-08-24T04:43:17.856Z,20.90
2018-08-24T04:45:45.291Z,21.00
2018-08-24T04:48:12.727Z,21.10
2018-08-24T04:50:40.269Z,21.00
2018-08-24T04:53:08.581Z,21.40
2018-08-24T04:55:36.058Z,21.10
2018-08-24T04:58:03.594Z,21.10
2018-08-24T05:00:31.071Z,21.10
2018-08-24T05:02:58.607Z,21.00
2018-08-24T05:05:31.805Z,21.10
2018-08-24T05:07:59.512Z,21.10
2018-08-24T05:10:27.007Z,21.10
2018-08-24T05:12:54.502Z,21.00
2018-08-24T05:15:22.548Z,21.10
2018-08-24T05:17:50.067Z,21.10
2018-08-24T05:20:17.619Z,21.00
2018-08-24T05:22:51.413Z,21.10
2018-08-24T05:25:18.980Z,21.10
2018-08-24T05:27:46.398Z,21.10
2018-08-24T05:30:13.972Z,21.00
2018-08-24T05:32:41.452Z,20.90
2018-08-24T05:35:08.858Z,20.90
2018-08-24T05:37:36.279Z,20.90
2018-08-24T05:40:03.859Z,20.90
2018-08-24T05:42:31.290Z,20.90
2018-08-24T05:44:58.803Z,20.90
2018-08-24T05:47:26.251Z,21.00
2018-08-24T05:49:53.730Z,20.90
2018-08-24T05:52:21.270Z,20.90
2018-08-24T05:54:49.144Z,20.80
2018-08-24T05:57:16.711Z,20.80
2018-08-24T05:59:44.197Z,20.90
2018-08-24T06:02:11.702Z,21.00
2018-08-24T06:04:40.437Z,21.00
2018-08-24T06:07:07.879Z,21.10
2018-08-24T06:09:35.453Z,21.10
2018-08-24T06:12:03.155Z,21.20
2018-08-24T06:14:30.627Z,21.30
2018-08-24T06:17:08.845Z,21.40
2018-08-24T06:19:37.435Z,21.40
2018-08-24T06:22:06.664Z,21.50
2018-08-24T06:24:34.269Z,21.40
2018-08-24T06:27:01.791Z,21.50
2018-08-24T06:29:29.308Z,21.30
2018-08-24T06:31:58.158Z,21.10
2018-08-24T06:34:25.689Z,21.00
2018-08-24T06:36:53.249Z,21.10
2018-08-24T06:39:20.851Z,21.20
2018-08-24T06:41:48.306Z,21.00
2018-08-24T06:44:15.687Z,20.90
2018-08-24T06:46:43.119Z,21.10
2018-08-24T06:49:10.555Z,21.30
2018-08-24T06:51:38.031Z,21.40
2018-08-24T06:54:05.589Z,21.40
2018-08-24T06:56:33.104Z,21.40
2018-08-24T06:59:00.531Z,21.50
2018-08-24T07:01:27.968Z,21.60
2018-08-24T07:03:55.468Z,21.60
2018-08-24T07:06:23.127Z,21.50
2018-08-24T07:08:50.777Z,21.30
2018-08-24T07:11:18.361Z,21.20
2018-08-24T07:13:47.614Z,21.20
2018-08-24T07:16:15.180Z,21.20
2018-08-24T07:18:42.764Z,20.90
2018-08-24T07:21:10.278Z,20.90
2018-08-24T07:23:37.715Z,20.70
2018-08-24T07:26:05.363Z,20.80
2018-08-24T07:28:33.002Z,20.80
2018-08-24T07:31:00.530Z,20.70
2018-08-24T07:33:28.017Z,20.90
2018-08-24T07:35:55.474Z,21.00
2018-08-24T07:38:22.911Z,21.00
2018-08-24T07:40:50.536Z,21.00
2018-08-24T07:43:18.466Z,21.10
2018-08-24T07:45:45.878Z,21.10
2018-08-24T07:48:13.419Z,21.20
2018-08-24T07:50:40.887Z,21.30
2018-08-24T07:53:08.418Z,21.20
2018-08-24T07:55:35.868Z,21.30
2018-08-24T07:58:03.356Z,21.20
2018-08-24T08:00:30.810Z,21.20
2018-08-24T08:02:58.291Z,21.30
2018-08-24T08:05:25.811Z,21.40
2018-08-24T08:07:53.134Z,21.30
2018-08-24T08:10:20.591Z,21.20
2018-08-24T08:12:48.024Z,21.20
2018-08-24T08:15:15.455Z,21.30
2018-08-24T08:17:42.859Z,21.20
2018-08-24T08:20:10.551Z,21.30
2018-08-24T08:22:38.015Z,21.40
2018-08-24T08:25:05.491Z,21.30
2018-08-24T08:27:33.233Z,21.20
2018-08-24T08:30:03.075Z,21.10
2018-08-24T08:32:31.278Z,21.00
2018-08-24T08:34:58.719Z,20.90
2018-08-24T08:37:26.130Z,21.10
2018-08-24T08:39:57.671Z,21.20
2018-08-24T08:42:25.235Z,21.30
2018-08-24T08:44:52.789Z,21.40
2018-08-24T08:47:20.265Z,21.50
2018-08-24T08:49:47.737Z,21.60
2018-08-24T08:52:15.296Z,21.70
2018-08-24T08:54:42.748Z,21.70
2018-08-24T08:57:10.297Z,21.60
2018-08-24T08:59:37.987Z,21.50
2018-08-24T09:02:06.507Z,21.60
2018-08-24T09:04:34.247Z,21.60
2018-08-24T09:07:01.791Z,21.40
2018-08-24T09:09:29.282Z,21.30
2018-08-24T09:11:56.727Z,21.10
2018-08-24T09:14:24.166Z,21.00
2018-08-24T09:16:51.626Z,21.00
2018-08-24T09:19:24.588Z,21.00
2018-08-24T09:21:57.832Z,20.70
2018-08-24T09:24:31.015Z,20.60
2018-08-24T09:27:04.135Z,20.60
2018-08-24T09:29:31.590Z,20.30
2018-08-24T09:31:59.906Z,20.00
2018-08-24T09:34:27.375Z,19.80
2018-08-24T09:36:54.804Z,19.90
2018-08-24T09:39:27.220Z,19.90
2018-08-24T09:41:56.970Z,20.00
2018-08-24T09:44:24.463Z,19.70
2018-08-24T09:46:57.639Z,19.50
2018-08-24T09:49:27.078Z,19.50
2018-08-24T09:51:54.549Z,19.70
2018-08-24T09:54:22.157Z,19.80
2018-08-24T09:56:49.650Z,19.80
2018-08-24T09:59:17.047Z,19.80
2018-08-24T10:01:50.144Z,19.80
2018-08-24T10:04:23.296Z,20.00
2018-08-24T10:06:56.558Z,19.80
2018-08-24T10:09:23.974Z,19.80
2018-08-24T10:11:51.629Z,19.90
2018-08-24T10:14:19.108Z,20.00
2018-08-24T10:16:46.559Z,20.10
2018-08-24T10:19:14.976Z,20.30
2018-08-24T10:21:42.460Z,20.40
2018-08-24T10:24:10.093Z,20.30
2018-08-24T10:26:38.051Z,20.80
2018-08-24T10:29:06.305Z,20.70
2018-08-24T10:31:33.769Z,20.80
2018-08-24T10:34:01.223Z,21.00
2018-08-24T10:36:28.736Z,21.40
2018-08-24T10:38:56.216Z,21.40
2018-08-24T10:41:23.886Z,21.50
2018-08-24T10:43:51.371Z,21.50
2018-08-24T10:46:18.816Z,21.50
2018-08-24T10:48:46.365Z,21.40
2018-08-24T10:51:13.834Z,21.50
2018-08-24T10:53:41.599Z,21.40
2018-08-24T10:56:09.361Z,21.20
2018-08-24T10:58:36.724Z,21.20
2018-08-24T11:01:04.207Z,21.20
2018-08-24T11:03:31.753Z,21.30
2018-08-24T11:05:59.428Z,21.30
2018-08-24T11:08:27.232Z,21.40
2018-08-24T11:10:54.716Z,21.80
2018-08-24T11:13:22.487Z,22.40
2018-08-24T11:15:50.924Z,22.40
2018-08-24T11:18:18.830Z,22.50
2018-08-24T11:20:46.308Z,22.90
2018-08-24T11:23:13.807Z,23.00
2018-08-24T11:25:41.312Z,23.10
2018-08-24T11:28:08.787Z,23.00
2018-08-24T11:30:36.247Z,23.20
2018-08-24T11:33:03.729Z,23.50
2018-08-24T11:35:31.181Z,23.90
2018-08-24T11:37:58.620Z,24.60
2018-08-24T11:40:26.063Z,24.70
2018-08-24T11:42:53.748Z,26.00
2018-08-24T11:45:21.287Z,27.50
2018-08-24T11:47:48.880Z,28.80
2018-08-24T11:50:16.430Z,30.30
2018-08-24T11:52:44.052Z,31.10
2018-08-24T11:55:11.532Z,31.60
2018-08-24T11:57:38.986Z,32.90
2018-08-24T12:00:06.532Z,33.80
2018-08-24T12:02:34.248Z,34.20
2018-08-24T12:05:01.799Z,34.60
2018-08-24T12:07:29.292Z,34.90
2018-08-24T12:09:56.755Z,35.00
2018-08-24T12:12:24.331Z,35.30
2018-08-24T12:14:51.804Z,35.60
2018-08-24T12:17:23.016Z,35.30
2018-08-24T12:19:50.726Z,35.10
2018-08-24T12:22:19.259Z,34.00
2018-08-24T12:24:46.798Z,33.40
2018-08-24T12:27:14.394Z,32.60
2018-08-24T12:29:42.381Z,32.10
2018-08-24T12:32:10.036Z,30.30
2018-08-24T12:34:37.573Z,29.60
2018-08-24T12:37:09.582Z,28.90
2018-08-24T12:39:37.210Z,28.30
2018-08-24T12:42:05.534Z,28.60
2018-08-24T12:44:33.268Z,28.60
2018-08-24T12:47:00.782Z,28.30
2018-08-24T12:49:28.425Z,28.20
2018-08-24T12:51:55.860Z,26.80
2018-08-24T12:54:24.940Z,26.70
2018-08-24T12:56:54.428Z,27.60
2018-08-24T12:59:21.930Z,28.80
2018-08-24T13:01:49.447Z,29.90
2018-08-24T13:04:16.892Z,30.70
2018-08-24T13:06:44.307Z,31.40
2018-08-24T13:09:11.928Z,31.80
2018-08-24T13:11:41.135Z,31.70
2018-08-24T13:14:09.228Z,32.20
2018-08-24T13:16:36.731Z,32.50
2018-08-24T13:19:04.816Z,31.90
2018-08-24T13:21:32.480Z,31.70
2018-08-24T13:23:59.919Z,30.50
2018-08-24T13:26:27.449Z,29.00
2018-08-24T13:28:55.173Z,27.90
2018-08-24T13:31:22.736Z,27.10
2018-08-24T13:33:50.261Z,26.50
2018-08-24T13:36:17.715Z,26.10
2018-08-24T13:38:45.355Z,25.70
2018-08-24T13:41:13.103Z,25.40
2018-08-24T13:43:40.576Z,25.10
2018-08-24T13:46:08.032Z,24.90
2018-08-24T13:48:35.831Z,24.70
2018-08-24T13:51:03.567Z,24.40
2018-08-24T13:53:31.097Z,24.60
2018-08-24T13:55:58.741Z,24.70
2018-08-24T13:58:28.136Z,25.10
2018-08-24T14:00:55.664Z,25.50
2018-08-24T14:03:23.164Z,25.70
2018-08-24T14:05:50.750Z,25.20
2018-08-24T14:08:18.272Z,25.00
2018-08-24T14:10:46.100Z,25.10
2018-08-24T14:13:13.710Z,25.00
2018-08-24T14:15:41.018Z,25.10
2018-08-24T14:18:08.646Z,24.90
2018-08-24T14:20:36.130Z,24.80
2018-08-24T14:23:03.661Z,24.90
2018-08-24T14:25:31.534Z,24.90
2018-08-24T14:27:58.955Z,25.00
2018-08-24T14:30:26.452Z,25.20
2018-08-24T14:32:53.927Z,25.30
2018-08-24T14:35:21.470Z,25.20
2018-08-24T14:37:50.065Z,25.10
2018-08-24T14:40:17.530Z,25.00
2018-08-24T14:42:45.009Z,24.90
2018-08-24T14:45:12.563Z,24.80
2018-08-24T14:47:40.041Z,25.00
2018-08-24T14:50:07.740Z,24.80
2018-08-24T14:52:35.348Z,24.80
2018-08-24T14:55:03.045Z,24.40
2018-08-24T14:57:30.685Z,24.60
2018-08-24T14:59:58.346Z,24.40
2018-08-24T15:02:25.895Z,24.20
2018-08-24T15:04:53.460Z,24.10
2018-08-24T15:07:21.049Z,24.10
2018-08-24T15:09:48.727Z,24.00
2018-08-24T15:12:17.039Z,23.90
2018-08-24T15:14:44.776Z,24.00
2018-08-24T15:17:12.376Z,23.90
2018-08-24T15:19:40.184Z,23.80
2018-08-24T15:22:07.724Z,24.00
2018-08-24T15:24:35.479Z,23.80
2018-08-24T15:27:03.122Z,23.70
2018-08-24T15:29:30.882Z,23.80
2018-08-24T15:31:58.367Z,23.70
2018-08-24T15:34:26.029Z,23.70
2018-08-24T15:36:53.617Z,23.70
2018-08-24T15:39:21.163Z,23.60
2018-08-24T15:41:48.828Z,23.70
2018-08-24T15:44:16.383Z,23.70
2018-08-24T15:46:43.856Z,23.50
2018-08-24T15:49:11.487Z,23.60
2018-08-24T15:51:39.131Z,23.60
2018-08-24T15:54:06.695Z,23.60
2018-08-24T15:56:34.239Z,23.60
2018-08-24T15:59:01.780Z,23.50
2018-08-24T16:01:29.437Z,23.40
2018-08-24T16:03:56.965Z,23.50
2018-08-24T16:06:24.503Z,23.50
2018-08-24T16:08:51.967Z,23.30
2018-08-24T16:11:19.508Z,23.50
2018-08-24T16:13:47.024Z,23.10
2018-08-24T16:16:14.511Z,23.00
2018-08-24T16:18:41.931Z,23.10
2018-08-24T16:21:09.408Z,23.00
2018-08-24T16:23:37.007Z,23.10
2018-08-24T16:26:20.446Z,22.90
2018-08-24T16:28:47.900Z,23.00
2018-08-24T16:31:15.485Z,22.80
2018-08-24T16:33:43.060Z,22.80
2018-08-24T16:36:10.770Z,22.80
2018-08-24T16:38:38.309Z,22.80
2018-08-24T16:41:05.912Z,22.80
2018-08-24T16:43:33.483Z,22.70
2018-08-24T16:46:00.985Z,22.80
2018-08-24T16:48:28.455Z,22.80
2018-08-24T16:50:55.945Z,22.70
2018-08-24T16:53:23.452Z,22.60
2018-08-24T16:55:51.042Z,22.60
2018-08-24T16:58:18.528Z,22.50
2018-08-24T17:00:46.147Z,22.50
2018-08-24T17:03:13.579Z,22.50
2018-08-24T17:05:41.053Z,22.40
2018-08-24T17:08:08.578Z,22.50
2018-08-24T17:10:36.400Z,22.50
2018-08-24T17:13:03.968Z,22.50
2018-08-24T17:15:31.521Z,22.60
2018-08-24T17:17:58.955Z,22.60
2018-08-24T17:20:26.428Z,22.60
2018-08-24T17:22:54.011Z,22.60
2018-08-24T17:25:21.511Z,22.40
2018-08-24T17:27:48.939Z,22.40
2018-08-24T17:30:16.428Z,22.30
2018-08-24T17:32:44.020Z,22.40
2018-08-24T17:35:11.519Z,22.40
2018-08-24T17:37:39.067Z,22.30
2018-08-24T17:40:06.603Z,22.30
2018-08-24T17:42:34.367Z,22.30
2018-08-24T17:45:01.827Z,22.30
2018-08-24T17:47:29.339Z,22.20
2018-08-24T17:49:57.307Z,22.20
2018-08-24T17:52:24.863Z,22.20
2018-08-24T17:54:52.416Z,22.00
2018-08-24T17:57:20.069Z,22.00
2018-08-24T17:59:47.680Z,22.00
2018-08-24T18:02:15.830Z,21.90
2018-08-24T18:04:43.368Z,22.00
2018-08-24T18:07:10.894Z,21.80
2018-08-24T18:09:38.383Z,21.80
2018-08-24T18:12:05.963Z,21.80
2018-08-24T18:14:33.392Z,21.70
2018-08-24T18:17:00.912Z,21.80
2018-08-24T18:19:28.483Z,21.70
2018-08-24T18:21:56.014Z,21.60
2018-08-24T18:24:23.532Z,21.70
2018-08-24T18:26:50.965Z,21.60
2018-08-24T18:29:18.497Z,21.60
2018-08-24T18:31:46.037Z,21.60
2018-08-24T18:34:14.611Z,21.70
2018-08-24T18:36:42.225Z,21.60
2018-08-24T18:39:11.223Z,21.60
2018-08-24T18:41:39.362Z,21.60
2018-08-24T18:44:07.364Z,21.50
2018-08-24T18:46:34.812Z,21.50
2018-08-24T18:49:02.349Z,21.50
2018-08-24T18:51:29.793Z,21.50
2018-08-24T18:53:57.284Z,21.40
2018-08-24T18:56:24.922Z,21.50
2018-08-24T18:58:52.412Z,21.40
2018-08-24T19:01:19.936Z,21.40
2018-08-24T19:03:47.457Z,21.40
2018-08-24T19:06:14.851Z,21.30
2018-08-24T19:08:42.319Z,21.40
2018-08-24T19:11:15.324Z,21.40
2018-08-24T19:13:42.768Z,21.30
2018-08-24T19:16:10.243Z,21.30
2018-08-24T19:18:44.343Z,21.40
2018-08-24T19:21:17.501Z,21.40
2018-08-24T19:23:44.980Z,21.20
2018-08-24T19:26:12.418Z,21.30
2018-08-24T19:28:45.920Z,21.20
2018-08-24T19:31:13.451Z,21.30
2018-08-24T19:33:41.023Z,21.20
2018-08-24T19:36:08.511Z,21.10
2018-08-24T19:38:35.969Z,21.00
2018-08-24T19:41:09.057Z,21.10
2018-08-24T19:43:37.869Z,21.00
2018-08-24T19:46:05.935Z,20.90
2018-08-24T19:48:39.186Z,21.00
2018-08-24T19:51:07.201Z,20.90
2018-08-24T19:53:34.714Z,20.70
2018-08-24T19:56:02.304Z,20.90
2018-08-24T19:58:37.587Z,20.80
2018-08-24T20:01:05.216Z,20.80
2018-08-24T20:03:33.531Z,20.80
2018-08-24T20:06:06.961Z,20.80
2018-08-24T20:08:40.169Z,20.80
2018-08-24T20:11:07.657Z,20.80
2018-08-24T20:13:38.595Z,20.70
2018-08-24T20:16:11.714Z,20.80
2018-08-24T20:18:39.268Z,20.90
2018-08-24T20:21:06.895Z,20.90
2018-08-24T20:23:34.493Z,20.90
2018-08-24T20:26:01.976Z,20.70
2018-08-24T20:28:29.496Z,20.80
2018-08-24T20:30:57.286Z,20.70
2018-08-24T20:33:24.767Z,20.90
2018-08-24T20:35:52.237Z,20.70
2018-08-24T20:38:19.683Z,20.60
2018-08-24T20:40:47.235Z,20.60
2018-08-24T20:43:15.393Z,20.60
2018-08-24T20:45:42.870Z,20.60
2018-08-24T20:48:10.453Z,20.60
2018-08-24T20:50:37.966Z,20.70
2018-08-24T20:53:05.542Z,20.50
2018-08-24T20:55:33.107Z,20.60
2018-08-24T20:58:03.389Z,20.60
2018-08-24T21:00:30.845Z,20.40
2018-08-24T21:02:58.558Z,20.50
2018-08-24T21:05:26.072Z,20.60
2018-08-24T21:07:53.586Z,20.60
2018-08-24T21:10:21.087Z,20.50
2018-08-24T21:12:48.638Z,20.60
2018-08-24T21:15:16.131Z,20.60
2018-08-24T21:17:43.593Z,20.60
2018-08-24T21:20:11.044Z,20.50
2018-08-24T21:22:38.515Z,20.50
2018-08-24T21:25:06.435Z,20.40
2018-08-24T21:27:33.900Z,20.50
2018-08-24T21:30:01.399Z,20.40
2018-08-24T21:32:28.857Z,20.30
2018-08-24T21:34:56.359Z,20.30
2018-08-24T21:37:23.867Z,20.30
2018-08-24T21:39:51.347Z,20.20
2018-08-24T21:42:18.840Z,20.30
2018-08-24T21:44:46.269Z,20.20
2018-08-24T21:47:13.755Z,20.10
2018-08-24T21:49:41.446Z,20.00
2018-08-24T21:52:08.916Z,20.20
2018-08-24T21:54:36.627Z,20.10
2018-08-24T21:57:04.090Z,20.10
2018-08-24T21:59:31.613Z,20.00
2018-08-24T22:01:59.186Z,20.00
2018-08-24T22:04:28.195Z,19.80
2018-08-24T22:06:55.855Z,19.80
2018-08-24T22:09:23.478Z,19.80
2018-08-24T22:11:50.970Z,19.90
2018-08-24T22:14:18.400Z,19.90
2018-08-24T22:16:45.900Z,19.90
2018-08-24T22:19:13.412Z,19.80
2018-08-24T22:21:40.842Z,19.70
2018-08-24T22:24:08.362Z,19.80
2018-08-24T22:26:35.815Z,19.70
2018-08-24T22:29:03.374Z,19.70
2018-08-24T22:31:30.905Z,19.80
2018-08-24T22:33:58.367Z,19.70
2018-08-24T22:36:25.879Z,19.70
2018-08-24T22:38:53.364Z,19.70
2018-08-24T22:41:20.872Z,19.60
2018-08-24T22:43:48.284Z,19.50
2018-08-24T22:46:15.804Z,19.50
2018-08-24T22:48:43.399Z,19.50
2018-08-24T22:51:10.867Z,19.40
2018-08-24T22:53:38.347Z,19.40
2018-08-24T22:56:05.852Z,19.40
2018-08-24T22:58:33.395Z,19.30
2018-08-24T23:01:04.848Z,19.30
2018-08-24T23:03:32.357Z,19.30
2018-08-24T23:05:59.856Z,19.20
2018-08-24T23:08:27.429Z,19.20
2018-08-24T23:10:54.839Z,19.00
2018-08-24T23:13:22.359Z,19.10
2018-08-24T23:15:50.709Z,19.10
2018-08-24T23:18:18.289Z,19.20
2018-08-24T23:20:45.755Z,19.10
2018-08-24T23:23:13.203Z,19.20
2018-08-24T23:25:40.660Z,19.10
2018-08-24T23:28:08.201Z,19.20
2018-08-24T23:30:37.839Z,19.10
2018-08-24T23:33:05.987Z,19.20
2018-08-24T23:35:33.487Z,19.00
2018-08-24T23:38:00.997Z,19.10
2018-08-24T23:40:28.608Z,19.20
2018-08-24T23:42:56.072Z,19.00
2018-08-24T23:45:23.577Z,18.90
2018-08-24T23:47:51.098Z,18.90
2018-08-24T23:50:18.539Z,19.00
2018-08-24T23:52:46.048Z,18.90
2018-08-24T23:55:14.054Z,18.80
2018-08-24T23:57:41.580Z,18.80
